Time;durP1;ratioP1;P1;durP2;ratioP2;P2;SDS_P1;SDS_P2;PMS_P1;PMS_P2;Temp;Humidity;BMP_temperature;BMP_pressure;BME280_temperature;BME280_humidity;BME280_pressure;Samples;Min_cycle;Max_cycle;Signal;HPM_P1;HPM_P2
2023/08/29 00:00:26;;;;;;;2.97;1.97;;;;;;;;;;5129854;28;20028;-62
2023/08/29 00:02:53;;;;;;;4.93;1.97;;;;;;;;;;5129766;28;20058;-62
2023/08/29 00:05:20;;;;;;;2.40;1.30;;;;;;;;;;5129158;28;20031;-62
2023/08/29 00:07:47;;;;;;;2.13;1.47;;;;;;;;;;5129926;28;20020;-62
2023/08/29 00:10:13;;;;;;;2.07;1.40;;;;;;;;;;5129650;28;20019;-61
2023/08/29 00:12:43;;;;;;;3.03;1.50;;;;;;;;;;5124392;28;20148;-61
2023/08/29 00:15:10;;;;;;;2.47;1.80;;;;;;;;;;5124174;28;20036;-61
2023/08/29 00:17:37;;;;;;;2.70;1.73;;;;;;;;;;5124357;28;20027;-62
2023/08/29 00:20:03;;;;;;;19.93;2.70;;;;;;;;;;5123918;28;20020;-62
2023/08/29 00:22:30;;;;;;;1.60;0.97;;;;;;;;;;5128847;28;20139;-61
2023/08/29 00:24:57;;;;;;;2.73;1.63;;;;;;;;;;5128432;28;20027;-61
2023/08/29 00:27:24;;;;;;;2.67;1.97;;;;;;;;;;5115192;28;20066;-61
2023/08/29 00:29:51;;;;;;;1.57;1.20;;;;;;;;;;5115576;28;20024;-61
2023/08/29 00:32:18;;;;;;;2.13;1.60;;;;;;;;;;5115821;28;20031;-61
2023/08/29 00:34:44;;;;;;;3.17;2.00;;;;;;;;;;5110096;28;20470;-62
2023/08/29 00:37:11;;;;;;;4.50;2.03;;;;;;;;;;5109945;28;20459;-61
2023/08/29 00:39:38;;;;;;;2.20;1.50;;;;;;;;;;5110155;28;20035;-61
2023/08/29 00:42:04;;;;;;;2.50;1.50;;;;;;;;;;5110277;28;20028;-61
2023/08/29 00:44:31;;;;;;;8.97;1.63;;;;;;;;;;5114462;28;20404;-61
2023/08/29 00:46:58;;;;;;;5.13;1.90;;;;;;;;;;5115309;28;20024;-61
2023/08/29 00:49:27;;;;;;;2.87;2.07;;;;;;;;;;5115275;28;20028;-61
2023/08/29 00:51:54;;;;;;;3.00;1.97;;;;;;;;;;5114755;28;20362;-61
2023/08/29 00:54:21;;;;;;;2.43;1.57;;;;;;;;;;5115111;28;20039;-61
2023/08/29 00:56:48;;;;;;;5.47;2.13;;;;;;;;;;5110280;28;20028;-61
2023/08/29 00:59:15;;;;;;;3.07;2.13;;;;;;;;;;5109936;28;20026;-61
2023/08/29 01:01:47;;;;;;;4.37;1.60;;;;;;;;;;5109716;28;20066;-61
2023/08/29 01:04:14;;;;;;;5.40;3.03;;;;;;;;;;5109700;28;20019;-61
2023/08/29 01:06:40;;;;;;;2.97;2.10;;;;;;;;;;5113457;28;20094;-62
2023/08/29 01:09:07;;;;;;;3.53;2.43;;;;;;;;;;5115019;28;20024;-61
2023/08/29 01:11:49;;;;;;;3.43;2.13;;;;;;;;;;5114786;28;20102;-61
2023/08/29 01:14:28;;;;;;;2.93;2.03;;;;;;;;;;5114505;28;20489;-61
2023/08/29 01:17:03;;;;;;;8.80;2.73;;;;;;;;;;5114516;28;20027;-61
2023/08/29 01:19:32;;;;;;;1.87;1.53;;;;;;;;;;5109488;28;20044;-61
2023/08/29 01:22:02;;;;;;;24.40;2.53;;;;;;;;;;5109363;28;20023;-61
2023/08/29 01:24:36;;;;;;;7.73;2.60;;;;;;;;;;5109413;28;20347;-61
2023/08/29 01:27:04;;;;;;;3.08;2.00;;;;;;;;;;5109164;28;20535;-61
2023/08/29 01:29:31;;;;;;;3.27;2.03;;;;;;;;;;5114166;28;20030;-62
2023/08/29 01:31:58;;;;;;;5.10;2.23;;;;;;;;;;5114189;28;20030;-61
2023/08/29 01:34:25;;;;;;;2.63;2.00;;;;;;;;;;5114383;28;20059;-61
2023/08/29 01:36:52;;;;;;;3.10;2.30;;;;;;;;;;5113775;28;20024;-61
2023/08/29 01:39:18;;;;;;;5.17;2.80;;;;;;;;;;5113755;28;20024;-61
2023/08/29 01:41:45;;;;;;;2.97;2.20;;;;;;;;;;5109091;28;20457;-61
2023/08/29 01:44:12;;;;;;;3.03;2.10;;;;;;;;;;5108736;28;20036;-61
2023/08/29 01:46:38;;;;;;;2.90;2.30;;;;;;;;;;5109053;28;20416;-61
2023/08/29 01:49:06;;;;;;;3.90;2.53;;;;;;;;;;5108739;28;20036;-61
2023/08/29 01:51:33;;;;;;;2.33;1.83;;;;;;;;;;5113622;28;20476;-61
2023/08/29 01:53:59;;;;;;;5.30;2.43;;;;;;;;;;5113951;28;20039;-61
2023/08/29 01:56:27;;;;;;;5.03;3.00;;;;;;;;;;5113938;28;20030;-61
2023/08/29 01:58:54;;;;;;;4.90;2.93;;;;;;;;;;5113957;28;20039;-61
2023/08/29 02:01:21;;;;;;;3.63;2.63;;;;;;;;;;5113476;28;20026;-63
2023/08/29 02:03:48;;;;;;;4.80;2.97;;;;;;;;;;5108580;28;20477;-63
2023/08/29 02:06:16;;;;;;;7.40;3.13;;;;;;;;;;5108583;28;20022;-63
2023/08/29 02:08:44;;;;;;;3.77;2.77;;;;;;;;;;5108408;28;20028;-64
2023/08/29 02:11:11;;;;;;;5.30;3.50;;;;;;;;;;5108359;28;20028;-64
2023/08/29 02:13:38;;;;;;;5.20;3.33;;;;;;;;;;5112878;28;20032;-63
2023/08/29 02:16:04;;;;;;;3.77;2.80;;;;;;;;;;5113187;28;20423;-64
2023/08/29 02:18:31;;;;;;;4.03;2.80;;;;;;;;;;5113674;28;20027;-64
2023/08/29 02:20:58;;;;;;;7.30;3.53;;;;;;;;;;5113017;28;20367;-63
2023/08/29 02:23:24;;;;;;;7.13;3.80;;;;;;;;;;5113460;28;20080;-64
2023/08/29 02:26:03;;;;;;;10.97;4.50;;;;;;;;;;5108876;28;20023;-64
2023/08/29 02:28:33;;;;;;;4.57;3.23;;;;;;;;;;5107311;28;20509;-64
2023/08/29 02:31:06;;;;;;;3.43;2.67;;;;;;;;;;5108399;28;20022;-63
2023/08/29 02:33:35;;;;;;;3.00;2.37;;;;;;;;;;5108092;28;20094;-64
2023/08/29 02:36:04;;;;;;;12.80;3.50;;;;;;;;;;5113034;28;20029;-64
2023/08/29 02:38:31;;;;;;;3.83;3.10;;;;;;;;;;5113192;28;20024;-63
2023/08/29 02:40:57;;;;;;;4.77;3.20;;;;;;;;;;5113068;28;20058;-62
2023/08/29 02:43:27;;;;;;;4.57;2.63;;;;;;;;;;5112830;28;20112;-61
2023/08/29 02:45:54;;;;;;;4.03;3.30;;;;;;;;;;5113184;28;20051;-61
2023/08/29 02:48:21;;;;;;;3.13;2.50;;;;;;;;;;5107981;28;20063;-61
2023/08/29 02:50:50;;;;;;;3.90;3.23;;;;;;;;;;5107883;28;20016;-61
2023/08/29 02:53:17;;;;;;;5.87;3.37;;;;;;;;;;5108147;28;20028;-61
2023/08/29 02:55:44;;;;;;;8.73;4.40;;;;;;;;;;5107863;28;20429;-61
2023/08/29 02:58:10;;;;;;;6.10;3.70;;;;;;;;;;5111923;28;20027;-61
2023/08/29 03:00:37;;;;;;;3.93;2.80;;;;;;;;;;5113172;28;20028;-61
2023/08/29 03:03:04;;;;;;;5.90;3.00;;;;;;;;;;5112937;28;20422;-61
2023/08/29 03:05:31;;;;;;;3.73;2.90;;;;;;;;;;5112831;28;20492;-61
2023/08/29 03:07:59;;;;;;;6.30;3.47;;;;;;;;;;5112913;28;20016;-61
2023/08/29 03:10:25;;;;;;;4.17;3.17;;;;;;;;;;5107947;28;20031;-61
2023/08/29 03:12:52;;;;;;;5.80;3.70;;;;;;;;;;5107656;28;20154;-61
2023/08/29 03:15:19;;;;;;;16.33;3.20;;;;;;;;;;5107679;28;20039;-61
2023/08/29 03:17:46;;;;;;;5.00;3.87;;;;;;;;;;5107675;28;20077;-61
2023/08/29 03:20:13;;;;;;;6.70;4.10;;;;;;;;;;5111899;28;20024;-61
2023/08/29 03:22:39;;;;;;;5.30;3.40;;;;;;;;;;5112909;28;20466;-61
2023/08/29 03:25:06;;;;;;;6.23;3.50;;;;;;;;;;5112835;28;20034;-61
2023/08/29 03:27:33;;;;;;;3.80;2.87;;;;;;;;;;5112585;28;20027;-61
2023/08/29 03:29:59;;;;;;;3.80;3.00;;;;;;;;;;5112216;28;20039;-61
2023/08/29 03:32:26;;;;;;;7.97;4.97;;;;;;;;;;5108675;28;20024;-61
2023/08/29 03:34:54;;;;;;;3.53;2.73;;;;;;;;;;5107407;28;20032;-62
2023/08/29 03:37:20;;;;;;;5.20;2.97;;;;;;;;;;5107790;28;20038;-61
2023/08/29 03:39:47;;;;;;;3.50;2.90;;;;;;;;;;5107545;28;20135;-62
2023/08/29 03:42:14;;;;;;;5.00;2.87;;;;;;;;;;5111009;28;20053;-62
2023/08/29 03:44:40;;;;;;;4.77;3.93;;;;;;;;;;5112385;28;20062;-61
2023/08/29 03:47:07;;;;;;;5.43;3.73;;;;;;;;;;5112703;28;20030;-61
2023/08/29 03:49:34;;;;;;;5.63;4.10;;;;;;;;;;5112474;28;20318;-61
2023/08/29 03:52:01;;;;;;;4.57;3.37;;;;;;;;;;5112572;28;20050;-61
2023/08/29 03:54:27;;;;;;;3.57;2.83;;;;;;;;;;5108605;28;20063;-61
2023/08/29 03:56:54;;;;;;;4.33;3.10;;;;;;;;;;5107495;28;20032;-61
2023/08/29 03:59:21;;;;;;;5.43;3.77;;;;;;;;;;5107307;28;20104;-61
2023/08/29 04:01:47;;;;;;;6.53;4.10;;;;;;;;;;5109558;28;20026;-61
2023/08/29 04:04:14;;;;;;;4.53;3.17;;;;;;;;;;5114217;28;20465;-61
2023/08/29 04:06:41;;;;;;;5.43;3.37;;;;;;;;;;5116345;28;20019;-61
2023/08/29 04:09:08;;;;;;;6.50;3.40;;;;;;;;;;5116083;28;20020;-61
2023/08/29 04:11:35;;;;;;;5.37;3.20;;;;;;;;;;5116250;28;20484;-61
2023/08/29 04:14:02;;;;;;;4.27;3.27;;;;;;;;;;5116020;28;20056;-61
2023/08/29 04:16:29;;;;;;;4.50;2.70;;;;;;;;;;5112434;28;20031;-61
2023/08/29 04:18:55;;;;;;;5.47;3.70;;;;;;;;;;5111016;28;20016;-61
2023/08/29 04:21:22;;;;;;;22.10;4.17;;;;;;;;;;5110842;28;20098;-61
2023/08/29 04:23:49;;;;;;;8.10;4.27;;;;;;;;;;5094468;28;20023;-61
2023/08/29 04:26:16;;;;;;;5.33;3.57;;;;;;;;;;5092239;28;20490;-61
2023/08/29 04:28:43;;;;;;;5.73;3.37;;;;;;;;;;5095458;28;20510;-62
2023/08/29 04:31:09;;;;;;;6.50;4.43;;;;;;;;;;5095216;28;20024;-61
2023/08/29 04:33:36;;;;;;;3.33;2.83;;;;;;;;;;5094421;28;20016;-61
2023/08/29 04:36:03;;;;;;;9.00;3.93;;;;;;;;;;5095434;28;20056;-61
2023/08/29 04:38:48;;;;;;;3.23;2.47;;;;;;;;;;5092248;28;20028;-62
2023/08/29 04:41:15;;;;;;;4.68;3.03;;;;;;;;;;5090068;28;20095;-61
2023/08/29 04:43:42;;;;;;;5.73;3.73;;;;;;;;;;5090055;28;20024;-61
2023/08/29 04:46:08;;;;;;;5.20;3.63;;;;;;;;;;5089049;28;20024;-62
2023/08/29 04:48:35;;;;;;;12.03;3.50;;;;;;;;;;5092773;28;20374;-61
2023/08/29 04:51:04;;;;;;;3.50;2.70;;;;;;;;;;5094998;28;20024;-61
2023/08/29 04:53:31;;;;;;;3.40;2.80;;;;;;;;;;5094699;28;20032;-61
2023/08/29 04:56:04;;;;;;;8.03;3.03;;;;;;;;;;5094809;28;20549;-61
2023/08/29 04:58:31;;;;;;;3.43;2.73;;;;;;;;;;5086675;28;20031;-61
2023/08/29 05:00:58;;;;;;;9.93;3.40;;;;;;;;;;5091211;28;20540;-61
2023/08/29 05:03:26;;;;;;;4.43;3.10;;;;;;;;;;5089628;28;20048;-61
2023/08/29 05:05:52;;;;;;;6.93;3.50;;;;;;;;;;5089709;28;20480;-61
2023/08/29 05:08:19;;;;;;;3.57;2.73;;;;;;;;;;5089445;28;20052;-63
2023/08/29 05:10:46;;;;;;;2.60;2.10;;;;;;;;;;5092237;28;20024;-61
2023/08/29 05:13:13;;;;;;;5.30;3.50;;;;;;;;;;5094649;28;20340;-61
2023/08/29 05:15:40;;;;;;;4.53;3.10;;;;;;;;;;5094050;28;20036;-61
2023/08/29 05:18:06;;;;;;;2.93;1.83;;;;;;;;;;5094427;28;20343;-61
2023/08/29 05:20:33;;;;;;;22.33;3.63;;;;;;;;;;5094565;28;20075;-63
2023/08/29 05:23:00;;;;;;;6.40;3.70;;;;;;;;;;5090968;28;20032;-61
2023/08/29 05:25:26;;;;;;;6.17;3.50;;;;;;;;;;5089312;28;20054;-61
2023/08/29 05:27:53;;;;;;;6.03;3.23;;;;;;;;;;5088934;28;20055;-62
2023/08/29 05:30:20;;;;;;;6.97;3.67;;;;;;;;;;5088804;28;20066;-63
2023/08/29 05:32:46;;;;;;;5.13;3.37;;;;;;;;;;5091366;28;20119;-63
2023/08/29 05:35:13;;;;;;;4.53;2.73;;;;;;;;;;5094106;28;20039;-63
2023/08/29 05:37:40;;;;;;;3.73;2.93;;;;;;;;;;5094372;28;20055;-63
2023/08/29 05:40:08;;;;;;;4.00;2.67;;;;;;;;;;5093749;28;20020;-63
2023/08/29 05:42:35;;;;;;;3.80;2.97;;;;;;;;;;5093919;28;20107;-64
2023/08/29 05:45:02;;;;;;;12.47;3.73;;;;;;;;;;5091118;28;20046;-63
2023/08/29 05:47:28;;;;;;;5.70;3.03;;;;;;;;;;5088294;28;20072;-64
2023/08/29 05:49:55;;;;;;;8.40;3.30;;;;;;;;;;5088779;28;20028;-63
2023/08/29 05:52:22;;;;;;;6.13;3.27;;;;;;;;;;5088746;28;20031;-65
2023/08/29 05:54:48;;;;;;;4.97;3.20;;;;;;;;;;5090300;28;20028;-64
2023/08/29 05:57:15;;;;;;;6.10;2.83;;;;;;;;;;5093796;28;20032;-63
2023/08/29 05:59:42;;;;;;;3.33;2.33;;;;;;;;;;5093759;28;20024;-63
2023/08/29 06:02:08;;;;;;;3.27;2.53;;;;;;;;;;5093029;28;20032;-63
2023/08/29 06:04:35;;;;;;;4.20;2.93;;;;;;;;;;5093550;28;20024;-63
2023/08/29 06:07:02;;;;;;;7.20;3.83;;;;;;;;;;5091331;28;20024;-65
2023/08/29 06:09:29;;;;;;;4.80;3.60;;;;;;;;;;5088556;28;20482;-63
2023/08/29 06:11:55;;;;;;;3.43;2.53;;;;;;;;;;5088077;28;20070;-63
2023/08/29 06:14:22;;;;;;;7.63;3.20;;;;;;;;;;5088202;28;20046;-64
2023/08/29 06:16:49;;;;;;;5.33;2.80;;;;;;;;;;5089366;28;20024;-64
2023/08/29 06:19:16;;;;;;;3.17;2.67;;;;;;;;;;5092874;28;20020;-64
2023/08/29 06:21:43;;;;;;;4.47;2.97;;;;;;;;;;5093311;28;20039;-63
2023/08/29 06:24:09;;;;;;;6.87;2.87;;;;;;;;;;5092779;28;20024;-61
2023/08/29 06:26:37;;;;;;;5.77;2.83;;;;;;;;;;5092879;28;20020;-61
2023/08/29 06:29:04;;;;;;;4.23;3.20;;;;;;;;;;5091301;28;20024;-61
2023/08/29 06:31:31;;;;;;;3.20;2.20;;;;;;;;;;5088101;28;20078;-61
2023/08/29 06:33:59;;;;;;;10.50;3.07;;;;;;;;;;5087130;28;20569;-61
2023/08/29 06:36:27;;;;;;;3.37;2.57;;;;;;;;;;5087768;28;20028;-61
2023/08/29 06:38:53;;;;;;;1.97;1.67;;;;;;;;;;5089001;28;20031;-61
2023/08/29 06:41:20;;;;;;;2.67;2.07;;;;;;;;;;5092972;28;20103;-61
2023/08/29 06:43:47;;;;;;;3.23;2.27;;;;;;;;;;5092553;28;20103;-61
2023/08/29 06:46:14;;;;;;;3.67;2.20;;;;;;;;;;5092957;28;20462;-61
2023/08/29 06:48:41;;;;;;;2.47;2.00;;;;;;;;;;5092586;28;20024;-61
2023/08/29 06:51:08;;;;;;;3.20;2.50;;;;;;;;;;5091304;28;20020;-61
2023/08/29 06:53:35;;;;;;;4.80;2.10;;;;;;;;;;5087436;28;20024;-61
2023/08/29 06:56:02;;;;;;;6.60;2.80;;;;;;;;;;5087236;28;20057;-61
2023/08/29 06:58:28;;;;;;;3.93;1.73;;;;;;;;;;5087854;28;20024;-61
2023/08/29 07:00:55;;;;;;;4.43;2.23;;;;;;;;;;5088402;28;20031;-61
2023/08/29 07:03:22;;;;;;;5.13;3.57;;;;;;;;;;5092749;28;20420;-61
2023/08/29 07:05:49;;;;;;;9.47;2.67;;;;;;;;;;5091977;28;20026;-61
2023/08/29 07:08:16;;;;;;;3.80;2.57;;;;;;;;;;5092154;28;20024;-61
2023/08/29 07:10:43;;;;;;;4.73;2.73;;;;;;;;;;5092725;28;20075;-61
2023/08/29 07:13:09;;;;;;;28.27;3.90;;;;;;;;;;5091372;28;20450;-61
2023/08/29 07:15:36;;;;;;;4.57;2.63;;;;;;;;;;5087452;28;20039;-61
2023/08/29 07:18:05;;;;;;;3.10;2.03;;;;;;;;;;5087460;28;20020;-61
2023/08/29 07:20:32;;;;;;;6.03;3.93;;;;;;;;;;5086804;28;20085;-61
2023/08/29 07:22:59;;;;;;;2.70;2.03;;;;;;;;;;5088012;28;20020;-61
2023/08/29 07:25:41;;;;;;;4.20;2.30;;;;;;;;;;5092411;28;20501;-60
2023/08/29 07:28:09;;;;;;;5.13;2.87;;;;;;;;;;5092143;28;20386;-61
2023/08/29 07:30:39;;;;;;;4.17;3.03;;;;;;;;;;5092087;28;20031;-61
2023/08/29 07:33:06;;;;;;;3.27;2.60;;;;;;;;;;5091876;28;20020;-61
2023/08/29 07:35:33;;;;;;;5.43;2.73;;;;;;;;;;5091157;28;20042;-61
2023/08/29 07:38:00;;;;;;;4.20;2.63;;;;;;;;;;5091397;28;20024;-61
2023/08/29 07:40:27;;;;;;;6.17;3.03;;;;;;;;;;5091386;28;20482;-61
2023/08/29 07:42:53;;;;;;;4.60;2.43;;;;;;;;;;5091259;28;20440;-61
2023/08/29 07:45:20;;;;;;;5.50;3.67;;;;;;;;;;5091691;28;20053;-61
2023/08/29 07:47:47;;;;;;;3.37;2.73;;;;;;;;;;5095292;28;20478;-61
2023/08/29 07:50:13;;;;;;;15.87;3.60;;;;;;;;;;5096258;28;20055;-61
2023/08/29 07:52:40;;;;;;;6.07;3.67;;;;;;;;;;5096214;28;20351;-61
2023/08/29 07:55:07;;;;;;;9.50;4.63;;;;;;;;;;5096059;28;20070;-61
2023/08/29 07:57:34;;;;;;;5.10;3.23;;;;;;;;;;5094675;28;20056;-61
2023/08/29 08:00:01;;;;;;;7.77;4.07;;;;;;;;;;5090924;28;20028;-61
2023/08/29 08:02:28;;;;;;;7.23;3.83;;;;;;;;;;5090728;28;20020;-61
2023/08/29 08:04:54;;;;;;;5.23;3.50;;;;;;;;;;5090899;28;20379;-61
2023/08/29 08:07:21;;;;;;;4.30;3.10;;;;;;;;;;5091198;28;20061;-61
2023/08/29 08:09:48;;;;;;;3.30;2.80;;;;;;;;;;5095511;28;20474;-61
2023/08/29 08:12:14;;;;;;;4.97;2.97;;;;;;;;;;5095427;28;20020;-61
2023/08/29 08:14:41;;;;;;;5.60;3.53;;;;;;;;;;5095762;28;20024;-61
2023/08/29 08:17:08;;;;;;;4.03;2.77;;;;;;;;;;5095712;28;20055;-61
2023/08/29 08:19:35;;;;;;;4.53;2.77;;;;;;;;;;5094051;28;20537;-61
2023/08/29 08:22:01;;;;;;;8.63;4.40;;;;;;;;;;5090704;28;20020;-61
2023/08/29 08:24:28;;;;;;;6.13;3.40;;;;;;;;;;5090502;28;20028;-62
2023/08/29 08:26:55;;;;;;;3.90;2.60;;;;;;;;;;5090394;28;20031;-61
2023/08/29 08:29:21;;;;;;;4.27;2.80;;;;;;;;;;5090025;28;20514;-61
2023/08/29 08:31:48;;;;;;;4.87;3.33;;;;;;;;;;5095346;28;20099;-61
2023/08/29 08:34:15;;;;;;;5.50;3.40;;;;;;;;;;5095162;28;20038;-61
2023/08/29 08:36:41;;;;;;;5.10;3.00;;;;;;;;;;5095273;28;20020;-61
2023/08/29 08:39:08;;;;;;;4.47;3.63;;;;;;;;;;5095303;28;20123;-61
2023/08/29 08:41:35;;;;;;;4.53;3.30;;;;;;;;;;5094662;28;20027;-61
2023/08/29 08:44:04;;;;;;;4.73;2.70;;;;;;;;;;5089993;28;20330;-61
2023/08/29 08:46:31;;;;;;;11.80;3.57;;;;;;;;;;5089724;28;20036;-61
2023/08/29 08:48:59;;;;;;;4.77;3.50;;;;;;;;;;5089881;28;20027;-62
2023/08/29 08:51:26;;;;;;;3.50;2.70;;;;;;;;;;5090073;28;20044;-61
2023/08/29 08:53:54;;;;;;;3.47;2.67;;;;;;;;;;5094160;28;20142;-61
2023/08/29 08:56:21;;;;;;;9.90;3.40;;;;;;;;;;5095042;28;20028;-61
2023/08/29 08:58:47;;;;;;;19.77;3.03;;;;;;;;;;5094935;28;20081;-61
2023/08/29 09:01:14;;;;;;;11.03;2.23;;;;;;;;;;5094802;28;20028;-61
2023/08/29 09:03:42;;;;;;;4.17;3.07;;;;;;;;;;5094734;28;20371;-61
2023/08/29 09:06:10;;;;;;;7.13;4.57;;;;;;;;;;5089217;28;20024;-61
2023/08/29 09:08:37;;;;;;;6.83;4.23;;;;;;;;;;5089533;28;20036;-61
2023/08/29 09:11:05;;;;;;;5.30;3.37;;;;;;;;;;5089527;28;20032;-61
2023/08/29 09:13:32;;;;;;;7.40;3.17;;;;;;;;;;5089697;28;20095;-63
2023/08/29 09:15:59;;;;;;;2.27;1.77;;;;;;;;;;5094058;28;20636;-64
2023/08/29 09:18:33;;;;;;;3.57;2.47;;;;;;;;;;5093964;28;20058;-63
2023/08/29 09:21:00;;;;;;;3.50;2.53;;;;;;;;;;5094626;28;20058;-63
2023/08/29 09:23:37;;;;;;;2.70;2.13;;;;;;;;;;5094338;28;20032;-64
2023/08/29 09:26:04;;;;;;;3.07;2.53;;;;;;;;;;5093586;28;20035;-64
2023/08/29 09:28:31;;;;;;;4.80;3.10;;;;;;;;;;5088953;28;20035;-63
2023/08/29 09:31:08;;;;;;;4.63;2.50;;;;;;;;;;5088873;28;20491;-64
2023/08/29 09:33:35;;;;;;;4.07;3.13;;;;;;;;;;5089118;28;20480;-64
2023/08/29 09:36:03;;;;;;;4.73;2.80;;;;;;;;;;5088792;28;20197;-62
2023/08/29 09:38:30;;;;;;;2.97;2.23;;;;;;;;;;5093473;28;20063;-61
2023/08/29 09:40:56;;;;;;;12.93;2.63;;;;;;;;;;5093777;28;20055;-61
2023/08/29 09:43:23;;;;;;;6.07;3.50;;;;;;;;;;5093850;28;20017;-62
2023/08/29 09:45:51;;;;;;;8.97;2.63;;;;;;;;;;5093633;28;20517;-61
2023/08/29 09:48:18;;;;;;;7.07;2.47;;;;;;;;;;5093316;28;20138;-61
2023/08/29 09:50:45;;;;;;;3.93;2.20;;;;;;;;;;5088867;28;20016;-61
2023/08/29 09:53:16;;;;;;;2.27;1.67;;;;;;;;;;5088930;28;20024;-61
2023/08/29 09:55:49;;;;;;;3.53;2.13;;;;;;;;;;5088584;28;20028;-61
2023/08/29 09:58:20;;;;;;;1.43;1.20;;;;;;;;;;5087785;28;20476;-61
2023/08/29 10:00:47;;;;;;;1.77;1.47;;;;;;;;;;5093658;28;20366;-61
2023/08/29 10:03:14;;;;;;;1.83;1.50;;;;;;;;;;5093314;28;20088;-61
2023/08/29 10:05:42;;;;;;;2.73;1.77;;;;;;;;;;5093597;28;20046;-61
2023/08/29 10:08:11;;;;;;;2.73;1.90;;;;;;;;;;5093419;28;20016;-61
2023/08/29 10:10:42;;;;;;;5.07;2.23;;;;;;;;;;5092364;28;20024;-62
2023/08/29 10:13:10;;;;;;;1.87;1.37;;;;;;;;;;5088312;28;20025;-61
2023/08/29 10:15:37;;;;;;;2.43;1.87;;;;;;;;;;5088173;28;20024;-61
2023/08/29 10:18:04;;;;;;;2.63;1.87;;;;;;;;;;5088288;28;20059;-62
2023/08/29 10:20:32;;;;;;;4.77;1.93;;;;;;;;;;5088411;28;20027;-61
2023/08/29 10:22:59;;;;;;;1.70;1.30;;;;;;;;;;5093245;28;20109;-61
2023/08/29 10:25:28;;;;;;;3.00;1.67;;;;;;;;;;5092666;28;20055;-61
2023/08/29 10:27:56;;;;;;;2.33;1.73;;;;;;;;;;5093414;28;20675;-61
2023/08/29 10:30:24;;;;;;;2.23;1.57;;;;;;;;;;5093137;28;20133;-61
2023/08/29 10:32:53;;;;;;;1.90;1.43;;;;;;;;;;5092338;28;20024;-61
2023/08/29 10:35:22;;;;;;;3.53;2.57;;;;;;;;;;5087756;28;20055;-61
2023/08/29 10:37:52;;;;;;;2.37;1.60;;;;;;;;;;5087255;28;20356;-61
2023/08/29 10:40:19;;;;;;;3.73;1.73;;;;;;;;;;5087932;28;20097;-61
2023/08/29 10:42:54;;;;;;;11.90;2.27;;;;;;;;;;5088178;28;20413;-61
2023/08/29 10:45:21;;;;;;;4.25;2.25;;;;;;;;;;5093049;28;20093;-61
2023/08/29 10:47:48;;;;;;;4.20;1.90;;;;;;;;;;5092492;28;20039;-61
2023/08/29 10:50:21;;;;;;;5.60;3.10;;;;;;;;;;5092719;28;20383;-61
2023/08/29 10:52:50;;;;;;;8.80;2.27;;;;;;;;;;5092727;28;20023;-61
2023/08/29 10:55:20;;;;;;;5.60;2.87;;;;;;;;;;5091588;28;20028;-61
2023/08/29 10:57:47;;;;;;;5.03;3.57;;;;;;;;;;5087645;28;20039;-61
2023/08/29 11:00:18;;;;;;;8.50;3.90;;;;;;;;;;5087364;28;20028;-61
2023/08/29 11:02:47;;;;;;;5.20;3.20;;;;;;;;;;5087163;28;20028;-61
2023/08/29 11:05:15;;;;;;;4.10;2.93;;;;;;;;;;5088423;28;20031;-61
2023/08/29 11:07:42;;;;;;;5.00;3.33;;;;;;;;;;5092683;28;20020;-61
2023/08/29 11:10:16;;;;;;;4.57;2.90;;;;;;;;;;5091984;28;20122;-61
2023/08/29 11:13:01;;;;;;;3.67;2.93;;;;;;;;;;5091217;28;20032;-61
2023/08/29 11:15:46;;;;;;;3.55;2.65;;;;;;;;;;5092304;28;20546;-61
2023/08/29 11:18:34;;;;;;;7.22;2.90;;;;;;;;;;5089777;28;20072;-62
2023/08/29 11:21:10;;;;;;;4.80;2.60;;;;;;;;;;5086740;28;20029;-60
2023/08/29 11:23:41;;;;;;;3.37;2.60;;;;;;;;;;5087363;28;20089;-60
2023/08/29 11:26:09;;;;;;;4.10;2.73;;;;;;;;;;5087437;28;20020;-61
2023/08/29 11:28:47;;;;;;;4.90;3.57;;;;;;;;;;5090394;28;20058;-61
2023/08/29 11:31:18;;;;;;;9.53;3.37;;;;;;;;;;5092025;28;20056;-61
2023/08/29 11:33:46;;;;;;;2.93;2.57;;;;;;;;;;5073877;28;20043;-61
2023/08/29 11:36:13;;;;;;;3.30;2.70;;;;;;;;;;5092377;28;20024;-61
2023/08/29 11:38:40;;;;;;;3.87;2.37;;;;;;;;;;5092230;28;20150;-61
2023/08/29 11:41:07;;;;;;;3.40;2.33;;;;;;;;;;5087893;28;20052;-61
2023/08/29 11:43:34;;;;;;;4.83;3.33;;;;;;;;;;5087078;28;20032;-61
2023/08/29 11:46:01;;;;;;;4.77;2.90;;;;;;;;;;5086635;28;20024;-61
2023/08/29 11:48:29;;;;;;;4.27;2.90;;;;;;;;;;5087173;28;20032;-61
2023/08/29 11:51:03;;;;;;;4.67;3.53;;;;;;;;;;5090892;28;20082;-61
2023/08/29 11:53:34;;;;;;;4.63;2.95;;;;;;;;;;5092597;28;20031;-61
2023/08/29 11:56:02;;;;;;;7.27;3.53;;;;;;;;;;5091938;28;20048;-61
2023/08/29 11:58:33;;;;;;;4.73;2.80;;;;;;;;;;5091842;28;20051;-61
2023/08/29 12:01:07;;;;;;;7.97;2.97;;;;;;;;;;5091565;28;20035;-61
2023/08/29 12:03:38;;;;;;;6.13;3.50;;;;;;;;;;5087092;28;20123;-61
2023/08/29 12:06:10;;;;;;;6.80;2.83;;;;;;;;;;5086809;28;20264;-61
2023/08/29 12:08:41;;;;;;;5.83;3.23;;;;;;;;;;5086567;28;20035;-61
2023/08/29 12:11:08;;;;;;;2.87;2.00;;;;;;;;;;5086999;28;20036;-61
2023/08/29 12:13:36;;;;;;;3.13;2.50;;;;;;;;;;5091530;28;20048;-61
2023/08/29 12:16:03;;;;;;;2.37;1.90;;;;;;;;;;5091938;28;20116;-62
2023/08/29 12:18:32;;;;;;;5.50;3.57;;;;;;;;;;5091800;28;20031;-61
2023/08/29 12:21:11;;;;;;;3.93;3.07;;;;;;;;;;5091411;28;20081;-61
2023/08/29 12:23:38;;;;;;;6.80;2.87;;;;;;;;;;5094637;28;20450;-61
2023/08/29 12:26:05;;;;;;;3.53;2.60;;;;;;;;;;5090415;28;20024;-61
2023/08/29 12:28:31;;;;;;;3.33;2.47;;;;;;;;;;5090283;28;20082;-60
2023/08/29 12:30:58;;;;;;;3.80;2.97;;;;;;;;;;5090355;28;20048;-62
2023/08/29 12:33:25;;;;;;;3.37;2.17;;;;;;;;;;5089589;28;20032;-61
2023/08/29 12:35:51;;;;;;;4.97;2.47;;;;;;;;;;5094717;28;20111;-61
2023/08/29 12:38:18;;;;;;;6.83;3.67;;;;;;;;;;5095347;28;20028;-61
2023/08/29 12:40:45;;;;;;;3.03;2.37;;;;;;;;;;5095324;28;20020;-61
2023/08/29 12:43:12;;;;;;;3.13;2.33;;;;;;;;;;5095110;28;20031;-61
2023/08/29 12:45:40;;;;;;;4.13;3.00;;;;;;;;;;5095016;28;20024;-61
2023/08/29 12:48:07;;;;;;;5.10;2.90;;;;;;;;;;5089839;28;20031;-61
2023/08/29 12:50:34;;;;;;;9.67;2.77;;;;;;;;;;5090042;28;20099;-61
2023/08/29 12:53:01;;;;;;;3.17;2.50;;;;;;;;;;5089982;28;20039;-61
2023/08/29 12:55:28;;;;;;;6.03;2.97;;;;;;;;;;5089716;28;20103;-61
2023/08/29 12:57:55;;;;;;;5.63;3.00;;;;;;;;;;5094131;28;20074;-61
2023/08/29 13:00:21;;;;;;;6.67;2.50;;;;;;;;;;5094931;28;20020;-61
2023/08/29 13:02:48;;;;;;;3.97;2.63;;;;;;;;;;5094860;28;20074;-61
2023/08/29 13:05:15;;;;;;;2.77;2.27;;;;;;;;;;5094438;28;20036;-61
2023/08/29 13:07:43;;;;;;;2.87;2.27;;;;;;;;;;5094851;28;20024;-61
2023/08/29 13:10:11;;;;;;;3.60;2.43;;;;;;;;;;5071030;28;20021;-61
2023/08/29 13:12:38;;;;;;;3.50;2.73;;;;;;;;;;5089677;28;20066;-61
2023/08/29 13:15:06;;;;;;;2.47;2.00;;;;;;;;;;5089429;28;20067;-61
2023/08/29 13:17:33;;;;;;;3.77;2.97;;;;;;;;;;5089408;28;20028;-61
2023/08/29 13:20:00;;;;;;;4.37;3.20;;;;;;;;;;5093471;28;20497;-61
2023/08/29 13:22:27;;;;;;;4.10;3.13;;;;;;;;;;5094146;28;20051;-61
2023/08/29 13:24:54;;;;;;;12.13;3.40;;;;;;;;;;5094490;28;20043;-61
2023/08/29 13:27:20;;;;;;;4.37;3.17;;;;;;;;;;5094020;28;20043;-61
2023/08/29 13:29:47;;;;;;;3.70;2.67;;;;;;;;;;5094192;28;20034;-60
2023/08/29 13:32:14;;;;;;;5.17;3.60;;;;;;;;;;5089426;28;20094;-61
2023/08/29 13:34:40;;;;;;;4.20;3.37;;;;;;;;;;5088769;28;20055;-61
2023/08/29 13:37:07;;;;;;;5.17;4.07;;;;;;;;;;5089042;28;20042;-61
2023/08/29 13:39:34;;;;;;;4.80;3.60;;;;;;;;;;5088641;28;20035;-61
2023/08/29 13:42:00;;;;;;;4.00;3.20;;;;;;;;;;5093002;28;20035;-61
2023/08/29 13:44:27;;;;;;;6.43;3.63;;;;;;;;;;5093830;28;20060;-61
2023/08/29 13:46:53;;;;;;;5.67;2.87;;;;;;;;;;5093930;28;20031;-61
2023/08/29 13:49:20;;;;;;;2.73;2.23;;;;;;;;;;5093791;28;20043;-61
2023/08/29 13:51:48;;;;;;;3.93;2.27;;;;;;;;;;5093736;28;20107;-61
2023/08/29 13:54:15;;;;;;;4.40;2.30;;;;;;;;;;5089024;28;20046;-61
2023/08/29 13:56:44;;;;;;;3.37;2.37;;;;;;;;;;5088651;28;20031;-61
2023/08/29 13:59:10;;;;;;;4.47;2.57;;;;;;;;;;5088661;28;20027;-61
2023/08/29 14:01:37;;;;;;;3.67;2.33;;;;;;;;;;5088545;28;20363;-61
2023/08/29 14:04:04;;;;;;;2.33;1.70;;;;;;;;;;5091589;28;20052;-61
2023/08/29 14:06:30;;;;;;;1.90;1.57;;;;;;;;;;5093915;28;20478;-61
2023/08/29 14:08:57;;;;;;;4.37;1.97;;;;;;;;;;5093674;28;20056;-61
2023/08/29 14:11:24;;;;;;;2.87;2.20;;;;;;;;;;5093657;28;20109;-61
2023/08/29 14:13:51;;;;;;;2.77;2.07;;;;;;;;;;5093251;28;20039;-61
2023/08/29 14:16:18;;;;;;;2.27;1.77;;;;;;;;;;5089211;28;20125;-62
2023/08/29 14:18:45;;;;;;;3.37;2.33;;;;;;;;;;5088362;28;20363;-61
2023/08/29 14:21:12;;;;;;;1.77;1.60;;;;;;;;;;5087916;28;20058;-61
2023/08/29 14:23:39;;;;;;;5.33;1.93;;;;;;;;;;5087951;28;20032;-61
2023/08/29 14:26:09;;;;;;;3.60;1.70;;;;;;;;;;5091620;28;20033;-61
2023/08/29 14:28:35;;;;;;;3.37;1.97;;;;;;;;;;5092931;28;20036;-61
2023/08/29 14:31:03;;;;;;;7.17;2.07;;;;;;;;;;5093078;28;20027;-61
2023/08/29 14:33:30;;;;;;;2.80;2.00;;;;;;;;;;5093325;28;20024;-61
2023/08/29 14:35:57;;;;;;;4.37;2.37;;;;;;;;;;5092167;28;20036;-61
2023/08/29 14:38:24;;;;;;;3.47;2.53;;;;;;;;;;5089491;28;20054;-61
2023/08/29 14:40:50;;;;;;;4.47;2.50;;;;;;;;;;5088106;28;20084;-61
2023/08/29 14:43:17;;;;;;;3.63;2.40;;;;;;;;;;5087470;28;20039;-61
2023/08/29 14:45:45;;;;;;;3.00;2.20;;;;;;;;;;5087366;28;20433;-61